Time;durP1;ratioP1;P1;durP2;ratioP2;P2;SDS_P1;SDS_P2;PMS_P1;PMS_P2;Temp;Humidity;BMP_temperature;BMP_pressure;BME280_temperature;BME280_humidity;BME280_pressure;Samples;Min_cycle;Max_cycle;Signal;HPM_P1;HPM_P2
2021/07/19 00:01:37;;;;;;;4.90;4.37;;;21.30;99.90;;;;;;6104111;23;20402;-89
2021/07/19 00:04:04;;;;;;;5.67;5.07;;;21.10;99.90;;;;;;6103940;23;20408;-89
2021/07/19 00:06:56;;;;;;;5.43;4.93;;;21.20;99.90;;;;;;6121394;23;20406;-87
2021/07/19 00:09:25;;;;;;;6.60;6.00;;;21.20;99.90;;;;;;6124599;23;20437;-89
2021/07/19 00:11:51;;;;;;;5.60;5.10;;;21.20;99.90;;;;;;6123312;23;20392;-88
2021/07/19 00:14:20;;;;;;;5.07;4.57;;;21.20;99.90;;;;;;6120530;23;20440;-87
2021/07/19 00:16:49;;;;;;;5.83;5.43;;;21.20;99.90;;;;;;6118662;23;20437;-89
2021/07/19 00:19:15;;;;;;;4.90;4.47;;;21.20;99.90;;;;;;6124004;23;20414;-88
2021/07/19 00:21:45;;;;;;;6.00;5.07;;;21.10;99.90;;;;;;6122779;23;20422;-87
2021/07/19 00:24:12;;;;;;;5.70;4.40;;;21.00;99.90;;;;;;6110380;23;20397;-88
2021/07/19 00:26:38;;;;;;;4.47;4.07;;;21.10;99.90;;;;;;6110252;23;20508;-87
2021/07/19 00:29:05;;;;;;;6.23;5.33;;;21.00;99.90;;;;;;6120038;23;20433;-88
2021/07/19 00:31:34;;;;;;;6.20;5.53;;;21.00;99.90;;;;;;6112262;23;20404;-88
2021/07/19 00:34:01;;;;;;;5.00;4.60;;;20.80;99.90;;;;;;6123082;23;20465;-87
2021/07/19 00:36:28;;;;;;;6.13;5.53;;;20.70;99.90;;;;;;6112920;23;20411;-89
2021/07/19 00:38:56;;;;;;;7.50;6.80;;;20.60;99.90;;;;;;6110315;23;20434;-87
2021/07/19 00:41:23;;;;;;;6.53;5.97;;;20.70;99.90;;;;;;6112144;23;20491;-87
2021/07/19 00:43:52;;;;;;;5.23;4.73;;;20.60;99.90;;;;;;6103347;23;20404;-88
2021/07/19 00:46:18;;;;;;;6.40;5.80;;;20.50;99.90;;;;;;6102833;23;20431;-87
2021/07/19 00:48:47;;;;;;;6.97;5.27;;;20.60;99.90;;;;;;6103031;23;20420;-87
2021/07/19 00:51:14;;;;;;;7.80;7.10;;;20.60;99.90;;;;;;6102459;23;20421;-88
2021/07/19 00:53:41;;;;;;;6.50;5.20;;;20.60;99.90;;;;;;6102296;23;20460;-88
2021/07/19 00:56:11;;;;;;;5.40;5.00;;;20.70;99.90;;;;;;6101077;23;20399;-88
2021/07/19 00:58:39;;;;;;;6.30;5.27;;;20.70;99.90;;;;;;6101412;23;20432;-87
2021/07/19 01:01:07;;;;;;;5.50;5.00;;;20.60;99.90;;;;;;6101112;23;20415;-89
2021/07/19 01:03:36;;;;;;;5.13;4.27;;;20.60;99.90;;;;;;6101427;23;20424;-89
2021/07/19 01:06:05;;;;;;;5.40;4.90;;;20.50;99.90;;;;;;6106455;23;20454;-88
2021/07/19 01:08:33;;;;;;;4.93;4.50;;;20.50;99.90;;;;;;6100976;23;20949;-88
2021/07/19 01:11:00;;;;;;;4.80;4.40;;;20.40;99.90;;;;;;6100768;23;20407;-88
2021/07/19 01:13:28;;;;;;;5.73;4.83;;;20.40;99.90;;;;;;6100746;23;20452;-88
2021/07/19 01:15:55;;;;;;;6.57;5.47;;;20.30;99.90;;;;;;6101280;23;20428;-88
2021/07/19 01:18:22;;;;;;;5.80;5.30;;;20.30;99.90;;;;;;6120102;23;20460;-88
2021/07/19 01:21:26;;;;;;;8.07;5.40;;;20.20;99.90;;;;;;6206222;23;20431;-86
2021/07/19 01:24:12;;;;;;;7.40;6.70;;;20.20;99.90;;;;;;6194204;23;20727;-89
2021/07/19 01:27:15;;;;;;;9.53;5.80;;;20.20;99.90;;;;;;6210529;23;20483;-89
2021/07/19 01:29:44;;;;;;;6.70;5.77;;;20.20;99.90;;;;;;6167365;23;20492;-88
2021/07/19 01:32:12;;;;;;;5.93;5.27;;;20.10;99.90;;;;;;6177501;23;20413;-88
2021/07/19 01:34:41;;;;;;;7.13;5.23;;;20.10;99.90;;;;;;6176828;23;20451;-88
2021/07/19 01:37:10;;;;;;;6.47;5.83;;;20.00;99.90;;;;;;6180069;23;20404;-87
2021/07/19 01:39:38;;;;;;;10.50;6.20;;;19.90;99.90;;;;;;6178334;23;20426;-86
2021/07/19 01:42:07;;;;;;;6.37;5.77;;;19.90;99.90;;;;;;6170303;23;20409;-88
2021/07/19 01:44:42;;;;;;;10.40;5.17;;;19.90;99.90;;;;;;6161025;23;20405;-87
2021/07/19 01:47:11;;;;;;;5.83;5.00;;;19.90;99.90;;;;;;6160918;23;20381;-88
2021/07/19 01:49:41;;;;;;;8.73;6.43;;;19.90;99.90;;;;;;6161124;23;20418;-88
2021/07/19 01:52:09;;;;;;;4.97;4.47;;;19.80;99.90;;;;;;6160420;23;20407;-89
2021/07/19 01:54:37;;;;;;;5.30;4.90;;;19.80;99.90;;;;;;6162184;23;20452;-88
2021/07/19 01:57:07;;;;;;;4.77;4.27;;;19.90;99.90;;;;;;6160514;23;20488;-88
2021/07/19 01:59:35;;;;;;;5.40;4.90;;;19.90;99.90;;;;;;6159893;23;20537;-89
2021/07/19 02:02:02;;;;;;;4.63;4.33;;;19.90;99.90;;;;;;6165254;23;20425;-88
2021/07/19 02:04:31;;;;;;;5.43;4.70;;;19.90;99.90;;;;;;6160512;23;20409;-87
2021/07/19 02:07:00;;;;;;;5.73;5.30;;;19.90;99.90;;;;;;6169856;23;20421;-87
2021/07/19 02:09:34;;;;;;;11.37;5.33;;;19.90;99.90;;;;;;6174221;23;20434;-86
2021/07/19 02:12:04;;;;;;;5.73;4.57;;;19.80;99.90;;;;;;6180044;23;20421;-89
2021/07/19 02:14:31;;;;;;;5.83;5.17;;;19.80;99.90;;;;;;6164390;23;20444;-87
2021/07/19 02:16:59;;;;;;;5.40;4.90;;;19.80;99.90;;;;;;6163398;23;20408;-86
2021/07/19 02:19:31;;;;;;;5.80;5.30;;;19.70;99.90;;;;;;6166984;23;20519;-89
2021/07/19 02:22:02;;;;;;;5.43;4.80;;;19.70;99.90;;;;;;6166292;23;20465;-88
2021/07/19 02:24:29;;;;;;;4.90;4.50;;;19.60;99.90;;;;;;6161952;23;21027;-87
2021/07/19 02:26:57;;;;;;;5.07;4.57;;;19.50;99.90;;;;;;6162143;23;20415;-88
2021/07/19 02:29:29;;;;;;;5.30;4.80;;;19.40;99.90;;;;;;6161912;23;20757;-88
2021/07/19 02:31:57;;;;;;;5.60;4.90;;;19.50;99.90;;;;;;6164929;23;20428;-89
2021/07/19 02:34:24;;;;;;;5.80;5.00;;;19.40;99.90;;;;;;6180704;23;20472;-88
2021/07/19 02:36:52;;;;;;;5.97;4.73;;;19.40;99.90;;;;;;6172595;23;20495;-88
2021/07/19 02:39:25;;;;;;;4.77;4.37;;;19.40;99.90;;;;;;6162702;23;20430;-89
2021/07/19 02:41:54;;;;;;;5.17;4.67;;;19.30;99.90;;;;;;6161432;23;20421;-89
2021/07/19 02:44:24;;;;;;;5.90;5.40;;;19.30;99.90;;;;;;6159924;23;20414;-88
2021/07/19 02:46:53;;;;;;;5.70;5.10;;;19.20;99.90;;;;;;6161023;23;20412;-88
2021/07/19 02:49:23;;;;;;;6.40;5.73;;;19.20;99.90;;;;;;6161731;23;20444;-88
2021/07/19 02:51:54;;;;;;;5.40;4.90;;;19.20;99.90;;;;;;6163094;23;20400;-89
2021/07/19 02:54:25;;;;;;;5.90;5.40;;;19.20;99.90;;;;;;6178131;23;20521;-89
2021/07/19 02:56:53;;;;;;;5.20;4.80;;;19.20;99.90;;;;;;6169122;23;20417;-88
2021/07/19 02:59:26;;;;;;;6.13;5.13;;;19.20;99.90;;;;;;6161719;23;20439;-88
2021/07/19 03:01:54;;;;;;;5.57;5.07;;;19.10;99.90;;;;;;6161492;23;20838;-89
2021/07/19 03:04:23;;;;;;;5.43;4.93;;;19.00;99.90;;;;;;6161099;23;20417;-88
2021/07/19 03:06:50;;;;;;;7.60;5.60;;;19.00;99.90;;;;;;6160713;23;20408;-88
2021/07/19 03:09:20;;;;;;;5.93;5.43;;;19.00;99.90;;;;;;6160936;23;20414;-88
2021/07/19 03:11:51;;;;;;;6.90;5.20;;;18.90;99.90;;;;;;6161517;23;20401;-88
2021/07/19 03:14:21;;;;;;;5.53;4.83;;;18.90;99.90;;;;;;6159534;23;20432;-89
2021/07/19 03:16:51;;;;;;;6.43;4.87;;;19.00;99.90;;;;;;6161959;23;20412;-87
2021/07/19 03:19:20;;;;;;;5.20;4.70;;;18.90;99.90;;;;;;6161583;23;20527;-89
2021/07/19 03:21:49;;;;;;;6.10;4.40;;;18.90;99.90;;;;;;6176550;23;20403;-86
2021/07/19 03:24:19;;;;;;;5.43;4.93;;;18.90;99.90;;;;;;6171982;23;20412;-88
2021/07/19 03:26:47;;;;;;;5.43;4.90;;;18.80;99.90;;;;;;6178597;23;20425;-87
2021/07/19 03:29:18;;;;;;;6.20;5.60;;;18.80;99.90;;;;;;6161590;23;20769;-88
2021/07/19 03:31:45;;;;;;;5.37;4.80;;;18.80;99.90;;;;;;6159886;23;20395;-88
2021/07/19 03:34:14;;;;;;;5.97;5.43;;;18.70;99.90;;;;;;6160706;23;20443;-89
2021/07/19 03:36:41;;;;;;;6.97;5.30;;;18.60;99.90;;;;;;6175550;23;20439;-87
2021/07/19 03:39:09;;;;;;;6.43;5.83;;;18.70;99.90;;;;;;6162754;23;20426;-87
2021/07/19 03:41:36;;;;;;;4.50;4.10;;;18.70;99.90;;;;;;6160960;23;20736;-87
2021/07/19 03:44:05;;;;;;;5.80;5.30;;;18.80;99.90;;;;;;6160308;23;20423;-88
2021/07/19 03:46:32;;;;;;;9.83;4.93;;;18.70;99.90;;;;;;6161729;23;20809;-88
2021/07/19 03:49:02;;;;;;;5.97;5.40;;;18.70;99.90;;;;;;6161937;23;20431;-87
2021/07/19 03:51:30;;;;;;;6.40;5.87;;;18.70;99.90;;;;;;6167472;23;20497;-87
2021/07/19 03:54:00;;;;;;;6.20;5.50;;;18.70;99.90;;;;;;6178998;23;20413;-86
2021/07/19 03:56:28;;;;;;;7.43;5.40;;;18.80;99.90;;;;;;6172778;23;20420;-88
2021/07/19 03:58:57;;;;;;;8.93;5.80;;;18.80;99.90;;;;;;6183253;23;20433;-87
2021/07/19 04:01:26;;;;;;;6.20;4.83;;;18.80;99.90;;;;;;6184244;23;20390;-86
2021/07/19 04:03:54;;;;;;;8.70;6.03;;;18.70;99.90;;;;;;6184115;23;20385;-87
2021/07/19 04:06:24;;;;;;;8.23;6.13;;;18.80;99.90;;;;;;6183910;23;20392;-88
2021/07/19 04:08:55;;;;;;;6.23;5.63;;;18.80;99.90;;;;;;6182057;23;20434;-88
2021/07/19 04:11:23;;;;;;;5.93;5.50;;;18.70;99.90;;;;;;6169988;23;20423;-88
2021/07/19 04:13:50;;;;;;;6.60;6.00;;;18.70;99.90;;;;;;6166594;23;20413;-87
2021/07/19 04:16:19;;;;;;;6.73;6.00;;;18.70;99.90;;;;;;6166086;23;20446;-88
2021/07/19 04:18:48;;;;;;;5.83;5.33;;;18.80;99.90;;;;;;6163918;23;20510;-88
2021/07/19 04:21:18;;;;;;;7.97;5.73;;;18.80;99.90;;;;;;6165052;23;20424;-88
2021/07/19 04:23:45;;;;;;;7.07;6.00;;;18.80;99.90;;;;;;6164249;23;20418;-86
2021/07/19 04:26:17;;;;;;;5.70;5.20;;;18.90;99.90;;;;;;6173513;23;20410;-92
2021/07/19 04:29:33;;;;;;;;;;;;;;;;;;;;;
2021/07/19 04:32:20;;;;;;;;;;;;;;;;;;;;;
2021/07/19 04:35:29;;;;;;;10.17;6.60;;;19.20;99.90;;;;;;6183986;23;20497;-91
2021/07/19 04:41:16;;;;;;;6.50;5.20;;;19.30;99.90;;;;;;6167323;23;20451;-93
2021/07/19 04:43:52;;;;;;;6.40;5.43;;;19.30;99.90;;;;;;6168043;23;20418;-92
2021/07/19 04:55:40;;;;;;;6.20;5.60;;;19.50;99.90;;;;;;6165928;23;20449;-93
2021/07/19 04:58:41;;;;;;;6.27;5.67;;;19.60;99.90;;;;;;6161695;23;20436;-93
2021/07/19 05:01:52;;;;;;;;;;;;;;;;;;;;;
2021/07/19 05:10:46;;;;;;;9.33;5.93;;;20.00;99.90;;;;;;6155311;23;20417;-92
2021/07/19 05:13:20;;;;;;;5.80;5.30;;;20.00;99.90;;;;;;6163645;23;20443;-92
2021/07/19 05:18:35;;;;;;;5.97;5.20;;;20.20;99.90;;;;;;6159124;23;20520;-93
2021/07/19 05:21:22;;;;;;;6.53;5.93;;;20.20;99.90;;;;;;6163953;23;20400;-93
2021/07/19 05:26:46;;;;;;;6.47;5.97;;;20.50;99.90;;;;;;6168152;23;20419;-92
2021/07/19 05:29:16;;;;;;;5.80;5.30;;;20.70;99.90;;;;;;6167535;23;20474;-91
2021/07/19 05:51:02;;;;;;;9.93;5.50;;;23.90;99.90;;;;;;6038976;23;20481;-91
2021/07/19 06:08:13;;;;;;;5.23;4.70;;;27.60;92.30;;;;;;5952414;23;20964;-88
2021/07/19 06:10:53;;;;;;;;;;;;;;;;;;;;;
2021/07/19 06:14:09;;;;;;;5.67;5.17;;;28.20;90.30;;;;;;6011117;23;21005;-88
2021/07/19 06:36:59;;;;;;;;;;;;;;;;;;;;;
2021/07/19 06:56:38;;;;;;;5.70;4.67;;;31.50;73.40;;;;;;6199402;23;20456;-88
2021/07/19 06:59:05;;;;;;;5.07;4.70;;;32.00;71.30;;;;;;6167862;23;20410;-83
2021/07/19 07:01:32;;;;;;;8.40;4.63;;;32.30;70.60;;;;;;6195600;23;20426;-82
2021/07/19 07:03:59;;;;;;;5.50;5.10;;;32.50;68.70;;;;;;6195288;23;20460;-82
2021/07/19 07:06:27;;;;;;;4.60;4.20;;;33.20;67.60;;;;;;6203606;23;20948;-82
2021/07/19 07:08:57;;;;;;;7.50;4.33;;;33.10;66.00;;;;;;6204282;23;20395;-83
2021/07/19 07:11:27;;;;;;;5.63;5.13;;;32.90;65.70;;;;;;6193934;23;20398;-84
2021/07/19 07:13:54;;;;;;;5.40;4.90;;;33.30;65.50;;;;;;6189154;23;20386;-82
2021/07/19 07:16:21;;;;;;;5.20;4.70;;;33.10;65.30;;;;;;6203978;23;20441;-84
2021/07/19 07:18:48;;;;;;;5.07;4.67;;;33.40;64.30;;;;;;6190501;23;20406;-81
2021/07/19 07:21:15;;;;;;;5.83;4.60;;;33.40;64.00;;;;;;6201505;23;20398;-84
2021/07/19 07:23:43;;;;;;;5.00;4.60;;;33.60;62.30;;;;;;6200415;23;20406;-85
2021/07/19 07:26:10;;;;;;;5.00;4.50;;;33.40;62.30;;;;;;6195228;23;20921;-84
2021/07/19 07:28:36;;;;;;;5.97;4.77;;;33.40;62.70;;;;;;6189631;23;20426;-84
2021/07/19 07:31:03;;;;;;;5.03;4.63;;;33.50;62.00;;;;;;6191796;23;20413;-84
2021/07/19 07:33:30;;;;;;;5.63;4.67;;;33.90;61.10;;;;;;6202863;23;20428;-84
2021/07/19 07:35:56;;;;;;;6.47;4.93;;;33.40;62.70;;;;;;6207451;23;20442;-85
2021/07/19 07:38:45;;;;;;;5.57;5.07;;;33.60;61.20;;;;;;6207313;23;20402;-84
2021/07/19 07:41:11;;;;;;;4.20;3.90;;;33.70;61.40;;;;;;6213355;23;20391;-85
2021/07/19 07:43:38;;;;;;;5.00;4.60;;;33.80;60.10;;;;;;6213607;23;20410;-87
2021/07/19 07:46:05;;;;;;;6.00;3.40;;;34.50;59.50;;;;;;6207272;23;20409;-84
2021/07/19 07:48:32;;;;;;;4.73;4.27;;;35.20;57.80;;;;;;6194778;23;20420;-85
2021/07/19 07:50:59;;;;;;;4.53;4.13;;;35.80;56.40;;;;;;6211926;23;20378;-86
2021/07/19 07:53:26;;;;;;;5.83;5.23;;;36.20;55.10;;;;;;6210757;23;20488;-85
2021/07/19 07:55:54;;;;;;;5.20;4.33;;;36.30;54.20;;;;;;6213211;23;20430;-84
2021/07/19 07:58:20;;;;;;;4.57;4.27;;;36.10;54.40;;;;;;6212120;23;20433;-85
2021/07/19 08:00:47;;;;;;;5.50;5.00;;;35.60;55.10;;;;;;6195885;23;20406;-86
2021/07/19 08:03:14;;;;;;;4.93;4.53;;;35.50;54.70;;;;;;6189119;23;20429;-86
2021/07/19 08:05:41;;;;;;;7.07;4.30;;;35.30;54.90;;;;;;6198779;23;20413;-85
2021/07/19 08:08:08;;;;;;;4.93;4.43;;;36.00;54.80;;;;;;6210756;23;20418;-85
2021/07/19 08:10:35;;;;;;;5.53;5.03;;;36.30;53.20;;;;;;6197133;23;20791;-85
2021/07/19 08:13:03;;;;;;;5.47;5.00;;;36.80;52.00;;;;;;6210191;23;20437;-84
2021/07/19 08:15:31;;;;;;;5.20;4.80;;;36.20;52.10;;;;;;6197704;23;20445;-84
2021/07/19 08:17:57;;;;;;;4.53;4.13;;;35.80;54.00;;;;;;6192089;23;20412;-85
2021/07/19 08:20:24;;;;;;;5.10;4.67;;;36.00;53.70;;;;;;6190762;23;20437;-84
2021/07/19 08:22:51;;;;;;;4.67;4.27;;;36.80;53.10;;;;;;6189089;23;20917;-84
2021/07/19 08:25:18;;;;;;;5.17;4.77;;;37.70;51.70;;;;;;6187390;23;20785;-82
2021/07/19 08:27:45;;;;;;;5.97;5.10;;;37.50;50.90;;;;;;6188653;23;20406;-85
2021/07/19 08:30:15;;;;;;;5.90;4.80;;;36.70;51.50;;;;;;6189153;23;20413;-85
2021/07/19 08:32:43;;;;;;;4.77;4.43;;;36.10;53.10;;;;;;6194141;23;20436;-86
2021/07/19 08:35:11;;;;;;;5.30;4.87;;;36.80;51.80;;;;;;6208420;23;20438;-85
2021/07/19 08:37:38;;;;;;;4.40;4.00;;;37.50;50.90;;;;;;6204175;23;20398;-84
2021/07/19 08:40:07;;;;;;;4.70;4.30;;;38.30;49.90;;;;;;6187122;23;20413;-83
2021/07/19 08:42:35;;;;;;;5.67;4.90;;;38.60;48.90;;;;;;6189742;23;20433;-84
2021/07/19 08:45:01;;;;;;;5.00;4.50;;;39.30;48.30;;;;;;6187686;23;20409;-84
2021/07/19 08:47:29;;;;;;;8.27;5.37;;;39.70;46.70;;;;;;6193298;23;20397;-84
2021/07/19 08:49:56;;;;;;;4.10;3.80;;;40.40;46.30;;;;;;6195005;23;20394;-84
2021/07/19 08:52:23;;;;;;;5.13;4.60;;;40.90;44.30;;;;;;6210406;23;20428;-84
2021/07/19 08:54:50;;;;;;;4.57;4.17;;;41.30;43.40;;;;;;6202267;23;20417;-84
2021/07/19 08:57:20;;;;;;;5.20;4.80;;;41.50;42.90;;;;;;6188918;23;20468;-85
2021/07/19 08:59:48;;;;;;;4.87;4.23;;;41.80;42.30;;;;;;6189994;23;20849;-85
2021/07/19 09:02:15;;;;;;;4.83;3.97;;;41.20;42.40;;;;;;6189809;23;20430;-85
2021/07/19 09:04:45;;;;;;;5.43;5.00;;;41.30;42.80;;;;;;6199428;23;20397;-85
2021/07/19 09:07:13;;;;;;;4.80;4.40;;;42.40;41.80;;;;;;6207722;23;20414;-84
2021/07/19 09:09:42;;;;;;;4.80;4.40;;;42.30;41.10;;;;;;6187817;23;20456;-84
2021/07/19 09:12:09;;;;;;;5.57;4.00;;;42.10;41.00;;;;;;6187988;23;20430;-84
2021/07/19 09:14:40;;;;;;;5.63;4.40;;;42.10;40.60;;;;;;6188355;23;20410;-84
2021/07/19 09:17:07;;;;;;;5.10;4.70;;;42.20;40.80;;;;;;6189292;23;20453;-84
2021/07/19 09:19:43;;;;;;;4.43;4.00;;;42.40;40.00;;;;;;6189640;23;20406;-85
2021/07/19 09:22:10;;;;;;;4.57;4.17;;;42.40;39.20;;;;;;6195874;23;20422;-85
2021/07/19 09:24:38;;;;;;;4.43;4.03;;;42.90;40.40;;;;;;6188411;23;20416;-85
2021/07/19 09:27:06;;;;;;;4.60;4.20;;;43.70;38.70;;;;;;6187341;23;20956;-85
2021/07/19 09:29:37;;;;;;;5.00;4.47;;;43.40;38.30;;;;;;6189671;23;20492;-87
2021/07/19 09:32:06;;;;;;;4.90;4.43;;;42.50;38.40;;;;;;6189642;23;20441;-88
2021/07/19 09:34:33;;;;;;;4.60;4.30;;;42.00;40.10;;;;;;6190863;23;20414;-84
2021/07/19 09:37:04;;;;;;;4.53;4.20;;;42.70;39.40;;;;;;6194070;23;20440;-85
2021/07/19 09:39:33;;;;;;;4.10;3.80;;;43.50;38.40;;;;;;6200961;23;20402;-84
2021/07/19 09:42:12;;;;;;;4.33;4.03;;;42.80;38.80;;;;;;6191337;23;20422;-89
2021/07/19 09:44:39;;;;;;;5.97;4.80;;;42.80;38.40;;;;;;6189920;23;20406;-87
2021/07/19 09:47:08;;;;;;;7.13;4.70;;;42.40;39.00;;;;;;6195531;23;20469;-85
2021/07/19 09:49:35;;;;;;;4.33;4.00;;;42.10;39.20;;;;;;6200049;23;20406;-84
2021/07/19 09:52:05;;;;;;;5.00;4.57;;;41.50;40.10;;;;;;6193967;23;20434;-84
2021/07/19 09:54:36;;;;;;;4.70;4.30;;;40.50;41.30;;;;;;6194171;23;20393;-84
2021/07/19 09:57:03;;;;;;;5.17;4.60;;;41.20;41.40;;;;;;6186573;23;20471;-85
2021/07/19 09:59:30;;;;;;;5.00;4.47;;;42.10;40.40;;;;;;6188997;23;20394;-85
2021/07/19 10:01:56;;;;;;;4.90;4.50;;;43.30;37.10;;;;;;6187722;23;20437;-85
2021/07/19 10:04:23;;;;;;;4.47;4.17;;;42.80;38.10;;;;;;6186084;23;20429;-85
2021/07/19 10:06:51;;;;;;;5.03;4.37;;;42.00;38.10;;;;;;6186224;23;20409;-85
2021/07/19 10:09:20;;;;;;;5.07;4.67;;;40.90;40.90;;;;;;6186163;23;20931;-85
2021/07/19 10:11:49;;;;;;;4.80;4.40;;;42.00;40.10;;;;;;6187336;23;20925;-85
2021/07/19 10:14:25;;;;;;;4.90;4.47;;;42.50;38.10;;;;;;6186104;23;20900;-85
2021/07/19 10:16:53;;;;;;;4.70;4.40;;;42.90;38.00;;;;;;6188401;23;20421;-85
2021/07/19 10:19:21;;;;;;;4.57;3.97;;;43.60;37.40;;;;;;6186870;23;20421;-85
2021/07/19 10:21:47;;;;;;;6.40;4.10;;;45.10;35.60;;;;;;6185939;23;20422;-85
2021/07/19 10:24:14;;;;;;;4.10;3.70;;;46.10;34.60;;;;;;6186114;23;20409;-85
2021/07/19 10:26:44;;;;;;;5.03;4.10;;;47.10;33.00;;;;;;6189061;23;20406;-85
2021/07/19 10:29:11;;;;;;;4.20;3.90;;;47.60;31.00;;;;;;6203201;23;20436;-85
2021/07/19 10:31:38;;;;;;;4.40;4.00;;;47.70;30.30;;;;;;6211697;23;20437;-85
2021/07/19 10:34:06;;;;;;;3.87;3.57;;;46.50;31.10;;;;;;6209057;23;20406;-85
2021/07/19 10:36:36;;;;;;;3.50;3.30;;;46.90;30.80;;;;;;6209448;23;20448;-85
2021/07/19 10:39:07;;;;;;;4.53;4.13;;;45.10;32.60;;;;;;6208648;23;20397;-85
2021/07/19 10:41:34;;;;;;;4.27;3.87;;;42.60;34.70;;;;;;6201122;23;20421;-85
2021/07/19 10:44:04;;;;;;;4.37;4.07;;;40.40;37.90;;;;;;6189885;23;20417;-85
2021/07/19 10:46:31;;;;;;;4.67;4.10;;;38.90;40.00;;;;;;6188471;23;20397;-85
2021/07/19 10:49:09;;;;;;;5.30;4.80;;;37.10;42.00;;;;;;6189890;23;20405;-85
2021/07/19 10:51:41;;;;;;;5.50;4.17;;;36.30;44.40;;;;;;6187261;23;21014;-85
2021/07/19 10:54:13;;;;;;;6.87;6.17;;;36.30;44.90;;;;;;6188648;23;20409;-85
2021/07/19 10:56:39;;;;;;;4.90;4.40;;;38.30;43.10;;;;;;6187019;23;20441;-85
2021/07/19 10:59:08;;;;;;;4.27;3.87;;;40.00;39.80;;;;;;6192214;23;20410;-85
2021/07/19 11:01:35;;;;;;;5.33;4.50;;;41.40;37.90;;;;;;6193449;23;20480;-86
2021/07/19 11:04:15;;;;;;;4.30;4.00;;;43.20;35.60;;;;;;6197393;23;20424;-85
2021/07/19 11:06:47;;;;;;;4.07;3.60;;;42.60;35.40;;;;;;6190578;23;20382;-84
2021/07/19 11:09:14;;;;;;;5.60;4.30;;;41.70;36.40;;;;;;6189491;23;20465;-85
2021/07/19 11:11:43;;;;;;;4.93;4.20;;;42.30;36.30;;;;;;6191644;23;20426;-86
2021/07/19 11:14:17;;;;;;;4.30;3.83;;;43.50;34.80;;;;;;6195483;23;20422;-86
2021/07/19 11:16:46;;;;;;;4.90;3.90;;;42.00;35.00;;;;;;6191652;23;20421;-86
2021/07/19 11:19:15;;;;;;;4.23;3.87;;;41.10;37.20;;;;;;6197028;23;20402;-85
2021/07/19 11:21:42;;;;;;;5.13;3.30;;;42.30;36.20;;;;;;6208159;23;20436;-87
2021/07/19 11:24:13;;;;;;;4.60;3.73;;;43.50;33.70;;;;;;6191751;23;20410;-86
2021/07/19 11:26:54;;;;;;;4.30;3.90;;;44.40;32.90;;;;;;6197428;23;20375;-85
2021/07/19 11:29:33;;;;;;;4.20;3.63;;;44.60;32.90;;;;;;6197153;23;20390;-85
2021/07/19 11:32:13;;;;;;;4.10;3.80;;;42.80;34.00;;;;;;6196464;23;20433;-86
2021/07/19 11:37:19;;;;;;;4.23;3.70;;;44.00;34.30;;;;;;6115892;23;20984;-90
2021/07/19 11:39:52;;;;;;;4.33;3.17;;;44.20;32.20;;;;;;6117377;23;20377;-91
2021/07/19 11:42:34;;;;;;;3.60;3.30;;;45.00;32.70;;;;;;6114714;23;20456;-91
2021/07/19 11:45:26;;;;;;;3.60;3.30;;;45.50;30.80;;;;;;6113911;23;20433;-90
2021/07/19 11:47:58;;;;;;;3.53;3.13;;;45.20;29.80;;;;;;6114837;23;20424;-91
2021/07/19 11:50:49;;;;;;;3.87;3.57;;;45.60;29.80;;;;;;6111282;23;20412;-91
2021/07/19 11:53:28;;;;;;;5.87;3.70;;;45.20;29.90;;;;;;6111668;23;20484;-92
2021/07/19 11:56:10;;;;;;;4.37;3.17;;;45.40;29.90;;;;;;6110564;23;20468;-93
2021/07/19 11:59:04;;;;;;;3.70;3.03;;;46.40;29.00;;;;;;6111666;23;20412;-92
2021/07/19 12:01:37;;;;;;;3.27;2.63;;;46.70;28.70;;;;;;6112763;23;20392;-92
2021/07/19 12:04:06;;;;;;;3.70;2.80;;;42.40;30.70;;;;;;6113167;23;20444;-91
2021/07/19 12:18:41;;;;;;;5.10;4.10;;;45.10;29.90;;;;;;6143968;23;20429;-92
2021/07/19 12:21:19;;;;;;;5.93;3.80;;;45.00;29.30;;;;;;6213264;23;20406;-91
2021/07/19 12:26:41;;;;;;;3.93;3.63;;;46.10;28.20;;;;;;6173608;23;20941;-92
2021/07/19 12:29:16;;;;;;;4.40;2.90;;;45.80;28.20;;;;;;6183508;23;20406;-92
2021/07/19 12:31:51;;;;;;;2.83;2.27;;;46.10;27.70;;;;;;6183421;23;20394;-92
2021/07/19 12:34:28;;;;;;;3.00;2.30;;;45.10;27.60;;;;;;6178082;23;20438;-90
2021/07/19 12:36:56;;;;;;;2.80;2.57;;;42.20;29.80;;;;;;6173398;23;20442;-90
2021/07/19 12:39:28;;;;;;;4.13;3.83;;;38.90;32.90;;;;;;6167763;23;20402;-92
2021/07/19 12:41:57;;;;;;;3.97;3.40;;;37.00;36.70;;;;;;6172432;23;20434;-92
2021/07/19 12:44:26;;;;;;;5.93;3.23;;;37.70;37.20;;;;;;6146290;23;20454;-92
2021/07/19 12:47:02;;;;;;;3.60;3.30;;;39.30;35.00;;;;;;6166365;23;20470;-92
2021/07/19 12:49:34;;;;;;;3.60;3.30;;;41.10;34.30;;;;;;6161784;23;20401;-91
2021/07/19 12:52:05;;;;;;;3.07;2.70;;;42.90;31.30;;;;;;6176406;23;20407;-92
2021/07/19 12:54:36;;;;;;;2.80;2.60;;;42.90;32.20;;;;;;6168278;23;20435;-91
2021/07/19 12:57:04;;;;;;;3.07;2.77;;;43.10;30.20;;;;;;6167101;23;20422;-92
2021/07/19 12:59:33;;;;;;;4.70;2.70;;;42.30;31.20;;;;;;6166317;23;20498;-91
2021/07/19 13:02:03;;;;;;;3.23;3.03;;;42.20;31.70;;;;;;6167391;23;20421;-92
2021/07/19 13:04:33;;;;;;;3.57;3.07;;;41.30;32.10;;;;;;6167661;23;20462;-91
2021/07/19 13:07:02;;;;;;;3.87;3.23;;;41.60;32.50;;;;;;6166510;23;20415;-91
2021/07/19 13:09:32;;;;;;;3.20;2.90;;;41.70;32.80;;;;;;6164923;23;20726;-92
2021/07/19 13:12:01;;;;;;;5.80;3.77;;;42.60;32.20;;;;;;6164153;23;20473;-92
2021/07/19 13:14:40;;;;;;;3.53;3.20;;;42.80;32.70;;;;;;6164838;23;20426;-92
2021/07/19 13:17:08;;;;;;;4.13;3.10;;;43.40;32.20;;;;;;6164520;23;20430;-92
2021/07/19 13:19:41;;;;;;;3.40;3.10;;;42.40;31.70;;;;;;6163223;23;20410;-92
2021/07/19 13:22:11;;;;;;;3.30;3.00;;;40.20;34.20;;;;;;6163032;23;20750;-91
2021/07/19 13:24:40;;;;;;;4.83;3.10;;;38.10;37.10;;;;;;6163610;23;20810;-91
2021/07/19 13:27:10;;;;;;;3.80;3.43;;;36.70;39.70;;;;;;6165224;23;20402;-91
2021/07/19 13:29:37;;;;;;;4.00;3.40;;;35.80;41.60;;;;;;6165826;23;20407;-91
2021/07/19 13:32:08;;;;;;;4.20;3.63;;;35.10;42.50;;;;;;6166886;23;20402;-92
2021/07/19 13:34:36;;;;;;;3.80;3.50;;;34.50;44.00;;;;;;6171216;23;20415;-91
2021/07/19 13:37:04;;;;;;;5.60;3.63;;;34.00;44.80;;;;;;6170142;23;20493;-91
2021/07/19 13:39:32;;;;;;;6.00;4.70;;;33.90;45.60;;;;;;6171810;23;20421;-91
2021/07/19 13:42:04;;;;;;;3.70;3.33;;;35.80;43.20;;;;;;6177461;23;20509;-92
2021/07/19 13:44:33;;;;;;;4.67;3.73;;;37.30;41.50;;;;;;6168053;23;20501;-91
2021/07/19 13:47:00;;;;;;;3.33;3.13;;;38.60;38.40;;;;;;6166339;23;20395;-92
2021/07/19 13:49:27;;;;;;;4.67;3.47;;;39.80;37.60;;;;;;6165622;23;20742;-91
2021/07/19 13:51:58;;;;;;;3.33;3.13;;;40.50;36.60;;;;;;6164056;23;20438;-92
2021/07/19 13:54:26;;;;;;;3.07;2.83;;;38.90;37.40;;;;;;6164428;23;20521;-92
2021/07/19 13:56:57;;;;;;;5.90;3.23;;;37.40;39.70;;;;;;6164692;23;20406;-91
2021/07/19 13:59:25;;;;;;;4.10;3.57;;;36.20;41.80;;;;;;6168360;23;20506;-91
2021/07/19 14:01:53;;;;;;;4.00;3.27;;;35.10;43.40;;;;;;6169163;23;20414;-92
2021/07/19 14:04:20;;;;;;;4.53;3.67;;;34.40;44.70;;;;;;6167886;23;20435;-91
2021/07/19 14:06:47;;;;;;;4.33;3.57;;;33.90;45.60;;;;;;6165205;23;20465;-91
2021/07/19 14:09:15;;;;;;;3.80;3.40;;;33.70;45.90;;;;;;6171677;23;20447;-92
2021/07/19 14:11:42;;;;;;;5.70;3.93;;;33.30;46.80;;;;;;6168298;23;20414;-92
2021/07/19 14:14:10;;;;;;;5.07;3.67;;;32.90;47.70;;;;;;6170138;23;20454;-92
2021/07/19 14:16:38;;;;;;;4.50;4.10;;;32.70;48.20;;;;;;6167908;23;20454;-92
2021/07/19 14:19:09;;;;;;;4.47;4.00;;;32.70;48.80;;;;;;6168901;23;20968;-91
2021/07/19 14:21:37;;;;;;;4.50;3.90;;;33.90;47.80;;;;;;6169668;23;20418;-92
2021/07/19 14:24:06;;;;;;;4.20;3.70;;;34.20;46.40;;;;;;6182905;23;20399;-93
2021/07/19 14:26:39;;;;;;;3.27;2.97;;;35.10;45.60;;;;;;6177559;23;20418;-92
2021/07/19 14:29:07;;;;;;;4.27;3.20;;;36.40;43.20;;;;;;6169123;23;20458;-92
2021/07/19 14:31:35;;;;;;;3.80;3.37;;;37.70;41.70;;;;;;6168845;23;20878;-91
2021/07/19 14:34:02;;;;;;;5.13;4.07;;;37.90;40.30;;;;;;6177640;23;20411;-91
2021/07/19 14:36:31;;;;;;;4.80;3.27;;;38.20;40.70;;;;;;6178247;23;20480;-91
2021/07/19 14:38:58;;;;;;;4.40;4.00;;;38.30;39.70;;;;;;6176800;23;20426;-91
2021/07/19 14:41:25;;;;;;;3.63;3.33;;;38.50;39.40;;;;;;6181719;23;20406;-91
2021/07/19 14:44:06;;;;;;;4.47;3.50;;;37.80;40.50;;;;;;6174595;23;20410;-93
2021/07/19 14:46:45;;;;;;;4.00;3.70;;;36.50;42.50;;;;;;6161710;23;20407;-92
2021/07/19 14:49:16;;;;;;;4.70;4.00;;;35.20;44.60;;;;;;6169884;23;20399;-92
2021/07/19 14:51:48;;;;;;;6.60;5.20;;;34.30;46.80;;;;;;6170807;23;20411;-91
2021/07/19 14:54:15;;;;;;;6.97;4.10;;;33.30;48.60;;;;;;6167648;23;20430;-91
2021/07/19 14:56:43;;;;;;;4.23;3.90;;;32.60;50.10;;;;;;6165002;23;20498;-91
2021/07/19 14:59:12;;;;;;;4.13;3.73;;;32.10;51.50;;;;;;6172970;23;20440;-92
2021/07/19 15:01:39;;;;;;;7.07;4.77;;;31.70;52.10;;;;;;6179586;23;20425;-91
2021/07/19 15:04:09;;;;;;;4.73;3.67;;;31.50;53.10;;;;;;6176233;23;20406;-92